sensor_id;sensor_type;location;lat;lon;timestamp;P1;durP1;ratioP1;P2;durP2;ratioP2
33094;SDS011;19459;53.044;8.910;2023-04-25T00:01:31;23.60;;;7.53;;
33094;SDS011;19459;53.044;8.910;2023-04-25T00:04:01;20.17;;;6.68;;
33094;SDS011;19459;53.044;8.910;2023-04-25T00:06:27;26.70;;;8.02;;
33094;SDS011;19459;53.044;8.910;2023-04-25T00:08:54;28.90;;;6.50;;
33094;SDS011;19459;53.044;8.910;2023-04-25T00:11:21;32.28;;;7.32;;
33094;SDS011;19459;53.044;8.910;2023-04-25T00:13:48;32.70;;;7.43;;
33094;SDS011;19459;53.044;8.910;2023-04-25T00:16:15;28.60;;;7.35;;
33094;SDS011;19459;53.044;8.910;2023-04-25T00:18:42;43.75;;;8.27;;
33094;SDS011;19459;53.044;8.910;2023-04-25T00:21:08;24.52;;;6.97;;
33094;SDS011;19459;53.044;8.910;2023-04-25T00:23:33;32.92;;;7.47;;
33094;SDS011;19459;53.044;8.910;2023-04-25T00:26:01;35.30;;;6.82;;
33094;SDS011;19459;53.044;8.910;2023-04-25T00:28:27;38.22;;;7.35;;
33094;SDS011;19459;53.044;8.910;2023-04-25T00:30:53;31.42;;;7.32;;
33094;SDS011;19459;53.044;8.910;2023-04-25T00:33:19;42.40;;;8.13;;
33094;SDS011;19459;53.044;8.910;2023-04-25T00:35:46;32.80;;;7.25;;
33094;SDS011;19459;53.044;8.910;2023-04-25T00:38:11;35.53;;;8.10;;
33094;SDS011;19459;53.044;8.910;2023-04-25T00:40:37;35.47;;;7.28;;
33094;SDS011;19459;53.044;8.910;2023-04-25T00:43:03;40.10;;;6.90;;
33094;SDS011;19459;53.044;8.910;2023-04-25T00:45:29;41.03;;;8.45;;
33094;SDS011;19459;53.044;8.910;2023-04-25T00:47:55;33.72;;;6.63;;
33094;SDS011;19459;53.044;8.910;2023-04-25T00:50:22;37.25;;;6.47;;
33094;SDS011;19459;53.044;8.910;2023-04-25T00:52:48;28.10;;;6.20;;
33094;SDS011;19459;53.044;8.910;2023-04-25T00:55:14;26.60;;;6.75;;
33094;SDS011;19459;53.044;8.910;2023-04-25T00:57:40;37.20;;;9.40;;
33094;SDS011;19459;53.044;8.910;2023-04-25T01:00:07;37.20;;;8.25;;
33094;SDS011;19459;53.044;8.910;2023-04-25T01:02:35;34.65;;;7.85;;
33094;SDS011;19459;53.044;8.910;2023-04-25T01:05:02;38.08;;;8.35;;
33094;SDS011;19459;53.044;8.910;2023-04-25T01:07:28;37.38;;;8.60;;
33094;SDS011;19459;53.044;8.910;2023-04-25T01:09:55;30.70;;;6.28;;
33094;SDS011;19459;53.044;8.910;2023-04-25T01:12:21;27.65;;;6.90;;
33094;SDS011;19459;53.044;8.910;2023-04-25T01:14:48;36.47;;;7.60;;
33094;SDS011;19459;53.044;8.910;2023-04-25T01:17:14;44.58;;;7.70;;
33094;SDS011;19459;53.044;8.910;2023-04-25T01:19:41;29.17;;;7.60;;
33094;SDS011;19459;53.044;8.910;2023-04-25T01:22:06;31.45;;;6.72;;
33094;SDS011;19459;53.044;8.910;2023-04-25T01:24:35;33.95;;;7.63;;
33094;SDS011;19459;53.044;8.910;2023-04-25T01:27:02;38.85;;;7.95;;
33094;SDS011;19459;53.044;8.910;2023-04-25T01:29:28;41.97;;;9.43;;
33094;SDS011;19459;53.044;8.910;2023-04-25T01:31:54;26.80;;;7.55;;
33094;SDS011;19459;53.044;8.910;2023-04-25T01:34:21;39.65;;;7.05;;
33094;SDS011;19459;53.044;8.910;2023-04-25T01:36:48;32.90;;;6.35;;
33094;SDS011;19459;53.044;8.910;2023-04-25T01:39:16;33.03;;;6.63;;
33094;SDS011;19459;53.044;8.910;2023-04-25T01:41:43;35.03;;;6.63;;
33094;SDS011;19459;53.044;8.910;2023-04-25T01:44:09;27.48;;;6.53;;
33094;SDS011;19459;53.044;8.910;2023-04-25T01:46:35;32.53;;;6.15;;
33094;SDS011;19459;53.044;8.910;2023-04-25T01:49:01;30.98;;;6.05;;
33094;SDS011;19459;53.044;8.910;2023-04-25T01:51:28;31.98;;;7.13;;
33094;SDS011;19459;53.044;8.910;2023-04-25T01:53:54;29.95;;;7.03;;
33094;SDS011;19459;53.044;8.910;2023-04-25T01:56:20;32.05;;;7.07;;
33094;SDS011;19459;53.044;8.910;2023-04-25T01:58:46;35.35;;;7.88;;
33094;SDS011;19459;53.044;8.910;2023-04-25T02:01:12;26.55;;;6.88;;
33094;SDS011;19459;53.044;8.910;2023-04-25T02:03:38;37.47;;;8.60;;
33094;SDS011;19459;53.044;8.910;2023-04-25T02:06:03;35.78;;;6.97;;
33094;SDS011;19459;53.044;8.910;2023-04-25T02:08:29;28.85;;;6.68;;
33094;SDS011;19459;53.044;8.910;2023-04-25T02:10:56;35.20;;;7.25;;
33094;SDS011;19459;53.044;8.910;2023-04-25T02:13:22;35.53;;;6.25;;
33094;SDS011;19459;53.044;8.910;2023-04-25T02:15:48;29.85;;;6.55;;
33094;SDS011;19459;53.044;8.910;2023-04-25T02:18:14;34.45;;;6.40;;
33094;SDS011;19459;53.044;8.910;2023-04-25T02:20:41;34.42;;;5.85;;
33094;SDS011;19459;53.044;8.910;2023-04-25T02:23:08;26.25;;;6.43;;
33094;SDS011;19459;53.044;8.910;2023-04-25T02:25:34;23.83;;;6.30;;
33094;SDS011;19459;53.044;8.910;2023-04-25T02:27:59;29.25;;;5.68;;
33094;SDS011;19459;53.044;8.910;2023-04-25T02:30:25;31.75;;;6.40;;
33094;SDS011;19459;53.044;8.910;2023-04-25T02:32:51;30.95;;;6.00;;
33094;SDS011;19459;53.044;8.910;2023-04-25T02:35:17;28.40;;;5.55;;
33094;SDS011;19459;53.044;8.910;2023-04-25T02:37:43;35.65;;;6.00;;
33094;SDS011;19459;53.044;8.910;2023-04-25T02:40:09;27.48;;;6.50;;
33094;SDS011;19459;53.044;8.910;2023-04-25T02:42:35;37.28;;;6.82;;
33094;SDS011;19459;53.044;8.910;2023-04-25T02:45:01;22.90;;;6.05;;
33094;SDS011;19459;53.044;8.910;2023-04-25T02:47:30;26.73;;;6.60;;
33094;SDS011;19459;53.044;8.910;2023-04-25T02:49:56;48.33;;;9.50;;
33094;SDS011;19459;53.044;8.910;2023-04-25T02:52:22;33.03;;;7.13;;
33094;SDS011;19459;53.044;8.910;2023-04-25T02:54:47;25.30;;;6.55;;
33094;SDS011;19459;53.044;8.910;2023-04-25T02:57:13;36.28;;;6.53;;
33094;SDS011;19459;53.044;8.910;2023-04-25T02:59:39;29.45;;;6.60;;
33094;SDS011;19459;53.044;8.910;2023-04-25T03:02:05;35.35;;;5.75;;
33094;SDS011;19459;53.044;8.910;2023-04-25T03:04:31;30.10;;;6.20;;
33094;SDS011;19459;53.044;8.910;2023-04-25T03:06:58;24.65;;;6.20;;
33094;SDS011;19459;53.044;8.910;2023-04-25T03:09:24;30.80;;;5.88;;
33094;SDS011;19459;53.044;8.910;2023-04-25T03:11:50;27.50;;;6.47;;
33094;SDS011;19459;53.044;8.910;2023-04-25T03:14:16;34.53;;;6.15;;
33094;SDS011;19459;53.044;8.910;2023-04-25T03:16:41;29.40;;;6.75;;
33094;SDS011;19459;53.044;8.910;2023-04-25T03:19:07;21.45;;;6.07;;
33094;SDS011;19459;53.044;8.910;2023-04-25T03:21:34;32.00;;;6.28;;
33094;SDS011;19459;53.044;8.910;2023-04-25T03:24:01;26.80;;;5.50;;
33094;SDS011;19459;53.044;8.910;2023-04-25T03:26:28;24.83;;;5.78;;
33094;SDS011;19459;53.044;8.910;2023-04-25T03:28:54;28.92;;;5.78;;
33094;SDS011;19459;53.044;8.910;2023-04-25T03:31:20;24.92;;;5.20;;
33094;SDS011;19459;53.044;8.910;2023-04-25T03:33:47;34.33;;;5.82;;
33094;SDS011;19459;53.044;8.910;2023-04-25T03:36:13;26.20;;;6.28;;
33094;SDS011;19459;53.044;8.910;2023-04-25T03:38:39;34.33;;;6.28;;
33094;SDS011;19459;53.044;8.910;2023-04-25T03:41:06;32.78;;;5.63;;
33094;SDS011;19459;53.044;8.910;2023-04-25T03:43:32;25.33;;;6.13;;
33094;SDS011;19459;53.044;8.910;2023-04-25T03:45:58;18.80;;;6.43;;
33094;SDS011;19459;53.044;8.910;2023-04-25T03:48:23;28.20;;;5.65;;
33094;SDS011;19459;53.044;8.910;2023-04-25T03:50:51;28.98;;;6.22;;
33094;SDS011;19459;53.044;8.910;2023-04-25T03:53:17;29.40;;;6.65;;
33094;SDS011;19459;53.044;8.910;2023-04-25T03:55:43;34.92;;;6.70;;
33094;SDS011;19459;53.044;8.910;2023-04-25T03:58:09;24.02;;;5.53;;
33094;SDS011;19459;53.044;8.910;2023-04-25T04:00:35;24.23;;;6.72;;
33094;SDS011;19459;53.044;8.910;2023-04-25T04:03:01;40.03;;;7.57;;
33094;SDS011;19459;53.044;8.910;2023-04-25T04:05:27;27.52;;;5.47;;
33094;SDS011;19459;53.044;8.910;2023-04-25T04:07:54;24.63;;;6.82;;
33094;SDS011;19459;53.044;8.910;2023-04-25T04:10:20;30.58;;;6.45;;
33094;SDS011;19459;53.044;8.910;2023-04-25T04:12:46;36.13;;;6.32;;
33094;SDS011;19459;53.044;8.910;2023-04-25T04:15:12;16.80;;;4.80;;
33094;SDS011;19459;53.044;8.910;2023-04-25T04:17:38;29.08;;;5.45;;
33094;SDS011;19459;53.044;8.910;2023-04-25T04:20:04;21.48;;;5.05;;
33094;SDS011;19459;53.044;8.910;2023-04-25T04:22:32;26.58;;;5.97;;
33094;SDS011;19459;53.044;8.910;2023-04-25T04:24:57;31.38;;;6.43;;
33094;SDS011;19459;53.044;8.910;2023-04-25T04:27:23;30.10;;;5.55;;
33094;SDS011;19459;53.044;8.910;2023-04-25T04:29:49;21.08;;;6.25;;
33094;SDS011;19459;53.044;8.910;2023-04-25T04:32:17;27.90;;;6.10;;
33094;SDS011;19459;53.044;8.910;2023-04-25T04:34:43;30.58;;;6.00;;
33094;SDS011;19459;53.044;8.910;2023-04-25T04:37:09;26.42;;;5.13;;
33094;SDS011;19459;53.044;8.910;2023-04-25T04:39:35;28.65;;;6.50;;
33094;SDS011;19459;53.044;8.910;2023-04-25T04:42:01;20.52;;;5.35;;
33094;SDS011;19459;53.044;8.910;2023-04-25T04:44:28;17.92;;;4.95;;
33094;SDS011;19459;53.044;8.910;2023-04-25T04:46:58;25.02;;;5.53;;
33094;SDS011;19459;53.044;8.910;2023-04-25T04:49:24;22.10;;;6.38;;
33094;SDS011;19459;53.044;8.910;2023-04-25T04:51:50;31.02;;;7.28;;
33094;SDS011;19459;53.044;8.910;2023-04-25T04:54:16;33.85;;;5.65;;
33094;SDS011;19459;53.044;8.910;2023-04-25T04:56:41;16.65;;;4.55;;
33094;SDS011;19459;53.044;8.910;2023-04-25T04:59:07;28.17;;;5.70;;
33094;SDS011;19459;53.044;8.910;2023-04-25T05:01:33;25.83;;;4.55;;
33094;SDS011;19459;53.044;8.910;2023-04-25T05:04:02;35.35;;;5.13;;
33094;SDS011;19459;53.044;8.910;2023-04-25T05:06:28;18.77;;;4.60;;
33094;SDS011;19459;53.044;8.910;2023-04-25T05:08:55;27.13;;;5.60;;
33094;SDS011;19459;53.044;8.910;2023-04-25T05:11:22;30.10;;;6.45;;
33094;SDS011;19459;53.044;8.910;2023-04-25T05:13:49;32.00;;;7.07;;
33094;SDS011;19459;53.044;8.910;2023-04-25T05:16:16;17.33;;;4.45;;
33094;SDS011;19459;53.044;8.910;2023-04-25T05:18:42;20.48;;;4.57;;
33094;SDS011;19459;53.044;8.910;2023-04-25T05:21:08;19.13;;;4.22;;
33094;SDS011;19459;53.044;8.910;2023-04-25T05:23:34;22.90;;;4.22;;
33094;SDS011;19459;53.044;8.910;2023-04-25T05:26:00;18.05;;;4.88;;
33094;SDS011;19459;53.044;8.910;2023-04-25T05:28:26;20.75;;;4.35;;
33094;SDS011;19459;53.044;8.910;2023-04-25T05:30:52;19.95;;;4.75;;
33094;SDS011;19459;53.044;8.910;2023-04-25T05:33:17;20.25;;;4.28;;
33094;SDS011;19459;53.044;8.910;2023-04-25T05:35:44;22.30;;;6.68;;
33094;SDS011;19459;53.044;8.910;2023-04-25T05:38:09;23.33;;;4.18;;
33094;SDS011;19459;53.044;8.910;2023-04-25T05:40:36;24.05;;;5.03;;
33094;SDS011;19459;53.044;8.910;2023-04-25T05:43:02;21.95;;;4.70;;
33094;SDS011;19459;53.044;8.910;2023-04-25T05:45:27;21.50;;;4.28;;
33094;SDS011;19459;53.044;8.910;2023-04-25T05:47:53;31.98;;;5.25;;
33094;SDS011;19459;53.044;8.910;2023-04-25T05:50:19;29.65;;;5.38;;
33094;SDS011;19459;53.044;8.910;2023-04-25T05:52:45;22.50;;;4.40;;
33094;SDS011;19459;53.044;8.910;2023-04-25T05:55:11;20.15;;;5.30;;
33094;SDS011;19459;53.044;8.910;2023-04-25T05:57:37;20.88;;;4.70;;
33094;SDS011;19459;53.044;8.910;2023-04-25T06:00:06;28.02;;;6.65;;
33094;SDS011;19459;53.044;8.910;2023-04-25T06:02:34;18.27;;;5.35;;
33094;SDS011;19459;53.044;8.910;2023-04-25T06:05:00;19.45;;;5.00;;
33094;SDS011;19459;53.044;8.910;2023-04-25T06:07:28;14.30;;;3.80;;
33094;SDS011;19459;53.044;8.910;2023-04-25T06:09:57;25.02;;;4.97;;
33094;SDS011;19459;53.044;8.910;2023-04-25T06:12:23;18.40;;;4.43;;
33094;SDS011;19459;53.044;8.910;2023-04-25T06:14:48;20.25;;;4.45;;
33094;SDS011;19459;53.044;8.910;2023-04-25T06:17:14;21.38;;;4.63;;
33094;SDS011;19459;53.044;8.910;2023-04-25T06:19:40;19.88;;;4.07;;
33094;SDS011;19459;53.044;8.910;2023-04-25T06:22:06;18.70;;;3.67;;
33094;SDS011;19459;53.044;8.910;2023-04-25T06:24:33;23.58;;;5.32;;
33094;SDS011;19459;53.044;8.910;2023-04-25T06:26:59;24.83;;;6.20;;
33094;SDS011;19459;53.044;8.910;2023-04-25T06:29:25;19.27;;;3.72;;
33094;SDS011;19459;53.044;8.910;2023-04-25T06:31:51;13.57;;;3.75;;
33094;SDS011;19459;53.044;8.910;2023-04-25T06:34:17;19.98;;;3.53;;
33094;SDS011;19459;53.044;8.910;2023-04-25T06:36:42;19.38;;;3.92;;
33094;SDS011;19459;53.044;8.910;2023-04-25T06:39:09;25.30;;;3.75;;
33094;SDS011;19459;53.044;8.910;2023-04-25T06:41:35;18.45;;;4.35;;
33094;SDS011;19459;53.044;8.910;2023-04-25T06:44:01;25.25;;;4.18;;
33094;SDS011;19459;53.044;8.910;2023-04-25T06:46:27;14.23;;;3.10;;
33094;SDS011;19459;53.044;8.910;2023-04-25T06:48:53;20.58;;;5.03;;
33094;SDS011;19459;53.044;8.910;2023-04-25T06:51:18;18.77;;;2.72;;
33094;SDS011;19459;53.044;8.910;2023-04-25T06:53:44;17.50;;;3.38;;
33094;SDS011;19459;53.044;8.910;2023-04-25T06:56:10;22.02;;;5.38;;
33094;SDS011;19459;53.044;8.910;2023-04-25T06:58:36;17.25;;;3.97;;
33094;SDS011;19459;53.044;8.910;2023-04-25T07:01:01;14.93;;;3.22;;
33094;SDS011;19459;53.044;8.910;2023-04-25T07:03:27;15.27;;;3.20;;
33094;SDS011;19459;53.044;8.910;2023-04-25T07:05:53;13.55;;;3.13;;
33094;SDS011;19459;53.044;8.910;2023-04-25T07:08:19;15.65;;;4.10;;
33094;SDS011;19459;53.044;8.910;2023-04-25T07:10:46;17.83;;;4.35;;
33094;SDS011;19459;53.044;8.910;2023-04-25T07:13:12;15.07;;;3.42;;
33094;SDS011;19459;53.044;8.910;2023-04-25T07:15:38;21.42;;;3.45;;
33094;SDS011;19459;53.044;8.910;2023-04-25T07:18:03;19.33;;;3.55;;
33094;SDS011;19459;53.044;8.910;2023-04-25T07:20:29;16.58;;;5.13;;
33094;SDS011;19459;53.044;8.910;2023-04-25T07:22:56;12.80;;;2.50;;
33094;SDS011;19459;53.044;8.910;2023-04-25T07:25:22;11.90;;;2.63;;
33094;SDS011;19459;53.044;8.910;2023-04-25T07:27:47;16.25;;;3.70;;
33094;SDS011;19459;53.044;8.910;2023-04-25T07:30:13;20.20;;;3.40;;
33094;SDS011;19459;53.044;8.910;2023-04-25T07:32:39;11.77;;;3.72;;
33094;SDS011;19459;53.044;8.910;2023-04-25T07:35:05;20.75;;;2.95;;
33094;SDS011;19459;53.044;8.910;2023-04-25T07:37:33;13.25;;;3.15;;
33094;SDS011;19459;53.044;8.910;2023-04-25T07:40:00;15.98;;;3.53;;
33094;SDS011;19459;53.044;8.910;2023-04-25T07:42:28;21.25;;;2.97;;
33094;SDS011;19459;53.044;8.910;2023-04-25T07:44:55;14.60;;;3.58;;
33094;SDS011;19459;53.044;8.910;2023-04-25T07:47:21;12.77;;;2.58;;
33094;SDS011;19459;53.044;8.910;2023-04-25T07:49:47;11.25;;;2.03;;
33094;SDS011;19459;53.044;8.910;2023-04-25T07:52:12;12.00;;;2.92;;
33094;SDS011;19459;53.044;8.910;2023-04-25T07:54:39;12.65;;;2.55;;
33094;SDS011;19459;53.044;8.910;2023-04-25T07:57:05;11.30;;;3.05;;
33094;SDS011;19459;53.044;8.910;2023-04-25T07:59:33;10.10;;;2.85;;
33094;SDS011;19459;53.044;8.910;2023-04-25T08:01:59;16.13;;;2.97;;
33094;SDS011;19459;53.044;8.910;2023-04-25T08:04:26;25.98;;;3.10;;
33094;SDS011;19459;53.044;8.910;2023-04-25T08:06:53;13.20;;;2.92;;
33094;SDS011;19459;53.044;8.910;2023-04-25T08:09:19;16.52;;;3.70;;
33094;SDS011;19459;53.044;8.910;2023-04-25T08:11:45;10.95;;;2.90;;
33094;SDS011;19459;53.044;8.910;2023-04-25T08:14:12;14.70;;;2.88;;
33094;SDS011;19459;53.044;8.910;2023-04-25T08:16:38;13.00;;;3.10;;
33094;SDS011;19459;53.044;8.910;2023-04-25T08:19:04;16.98;;;2.55;;
33094;SDS011;19459;53.044;8.910;2023-04-25T08:21:30;17.02;;;2.40;;
33094;SDS011;19459;53.044;8.910;2023-04-25T08:23:57;9.57;;;3.03;;
33094;SDS011;19459;53.044;8.910;2023-04-25T08:26:23;8.30;;;2.08;;
33094;SDS011;19459;53.044;8.910;2023-04-25T08:28:50;13.95;;;3.10;;
33094;SDS011;19459;53.044;8.910;2023-04-25T08:31:18;11.35;;;2.33;;
33094;SDS011;19459;53.044;8.910;2023-04-25T08:33:44;15.73;;;3.00;;
33094;SDS011;19459;53.044;8.910;2023-04-25T08:36:10;12.35;;;2.35;;
33094;SDS011;19459;53.044;8.910;2023-04-25T08:38:36;9.65;;;2.58;;
33094;SDS011;19459;53.044;8.910;2023-04-25T08:41:08;19.83;;;2.88;;
33094;SDS011;19459;53.044;8.910;2023-04-25T08:43:37;11.85;;;2.33;;
33094;SDS011;19459;53.044;8.910;2023-04-25T08:46:04;11.10;;;3.05;;
33094;SDS011;19459;53.044;8.910;2023-04-25T08:48:32;11.70;;;2.30;;
33094;SDS011;19459;53.044;8.910;2023-04-25T08:51:01;8.95;;;1.70;;
33094;SDS011;19459;53.044;8.910;2023-04-25T08:53:29;7.05;;;2.10;;
33094;SDS011;19459;53.044;8.910;2023-04-25T08:56:00;16.10;;;2.60;;
33094;SDS011;19459;53.044;8.910;2023-04-25T08:58:27;12.07;;;2.15;;
33094;SDS011;19459;53.044;8.910;2023-04-25T09:00:53;10.18;;;2.22;;
33094;SDS011;19459;53.044;8.910;2023-04-25T09:03:19;8.93;;;1.55;;
33094;SDS011;19459;53.044;8.910;2023-04-25T09:05:46;8.95;;;1.52;;
33094;SDS011;19459;53.044;8.910;2023-04-25T09:08:11;8.73;;;2.40;;
33094;SDS011;19459;53.044;8.910;2023-04-25T09:10:37;10.98;;;1.60;;
33094;SDS011;19459;53.044;8.910;2023-04-25T09:13:08;20.38;;;1.73;;
33094;SDS011;19459;53.044;8.910;2023-04-25T09:15:50;5.88;;;1.50;;
33094;SDS011;19459;53.044;8.910;2023-04-25T09:18:24;9.15;;;1.85;;
33094;SDS011;19459;53.044;8.910;2023-04-25T09:21:04;10.95;;;1.52;;
33094;SDS011;19459;53.044;8.910;2023-04-25T09:23:44;7.72;;;1.75;;
33094;SDS011;19459;53.044;8.910;2023-04-25T09:26:19;5.68;;;1.85;;
33094;SDS011;19459;53.044;8.910;2023-04-25T09:28:46;5.50;;;1.20;;
33094;SDS011;19459;53.044;8.910;2023-04-25T09:31:21;7.43;;;1.80;;
33094;SDS011;19459;53.044;8.910;2023-04-25T09:33:49;10.30;;;2.00;;
33094;SDS011;19459;53.044;8.910;2023-04-25T09:36:15;17.88;;;1.88;;
33094;SDS011;19459;53.044;8.910;2023-04-25T09:38:44;13.00;;;2.47;;
33094;SDS011;19459;53.044;8.910;2023-04-25T09:41:11;10.18;;;2.72;;
33094;SDS011;19459;53.044;8.910;2023-04-25T09:43:37;7.25;;;1.90;;
33094;SDS011;19459;53.044;8.910;2023-04-25T09:46:10;10.13;;;2.13;;
33094;SDS011;19459;53.044;8.910;2023-04-25T09:48:37;10.85;;;1.60;;
33094;SDS011;19459;53.044;8.910;2023-04-25T09:53:40;7.40;;;1.92;;
33094;SDS011;19459;53.044;8.910;2023-04-25T09:56:08;7.85;;;1.50;;
33094;SDS011;19459;53.044;8.910;2023-04-25T09:58:37;4.28;;;1.60;;
33094;SDS011;19459;53.044;8.910;2023-04-25T10:01:06;7.75;;;1.48;;
33094;SDS011;19459;53.044;8.910;2023-04-25T10:03:37;12.68;;;2.10;;
33094;SDS011;19459;53.044;8.910;2023-04-25T10:06:07;11.80;;;2.17;;
33094;SDS011;19459;53.044;8.910;2023-04-25T10:08:37;8.63;;;1.80;;
33094;SDS011;19459;53.044;8.910;2023-04-25T10:14:45;12.25;;;3.10;;
33094;SDS011;19459;53.044;8.910;2023-04-25T10:17:11;8.85;;;2.35;;
33094;SDS011;19459;53.044;8.910;2023-04-25T10:19:38;9.48;;;2.35;;
33094;SDS011;19459;53.044;8.910;2023-04-25T10:22:08;12.02;;;2.30;;
33094;SDS011;19459;53.044;8.910;2023-04-25T10:24:51;9.10;;;2.17;;
33094;SDS011;19459;53.044;8.910;2023-04-25T10:27:17;11.15;;;2.20;;
33094;SDS011;19459;53.044;8.910;2023-04-25T10:29:44;7.68;;;1.83;;
33094;SDS011;19459;53.044;8.910;2023-04-25T10:32:10;6.65;;;1.90;;
33094;SDS011;19459;53.044;8.910;2023-04-25T10:37:08;6.03;;;1.50;;
33094;SDS011;19459;53.044;8.910;2023-04-25T10:39:35;12.57;;;1.80;;
33094;SDS011;19459;53.044;8.910;2023-04-25T10:42:04;11.10;;;2.92;;
33094;SDS011;19459;53.044;8.910;2023-04-25T10:44:30;10.38;;;1.55;;
33094;SDS011;19459;53.044;8.910;2023-04-25T10:46:56;12.95;;;2.85;;
33094;SDS011;19459;53.044;8.910;2023-04-25T10:52:16;4.53;;;1.30;;
33094;SDS011;19459;53.044;8.910;2023-04-25T10:54:56;10.70;;;2.03;;
33094;SDS011;19459;53.044;8.910;2023-04-25T10:57:41;11.23;;;2.08;;
33094;SDS011;19459;53.044;8.910;2023-04-25T11:00:12;17.17;;;2.17;;
33094;SDS011;19459;53.044;8.910;2023-04-25T11:02:44;4.95;;;1.50;;
33094;SDS011;19459;53.044;8.910;2023-04-25T11:05:29;4.55;;;1.73;;
33094;SDS011;19459;53.044;8.910;2023-04-25T11:07:59;7.70;;;2.08;;
33094;SDS011;19459;53.044;8.910;2023-04-25T11:10:29;10.75;;;1.63;;
33094;SDS011;19459;53.044;8.910;2023-04-25T11:12:58;12.52;;;2.22;;
33094;SDS011;19459;53.044;8.910;2023-04-25T11:15:25;4.97;;;1.88;;
33094;SDS011;19459;53.044;8.910;2023-04-25T11:17:52;9.70;;;2.88;;
33094;SDS011;19459;53.044;8.910;2023-04-25T11:20:19;7.80;;;1.95;;
33094;SDS011;19459;53.044;8.910;2023-04-25T11:22:47;6.45;;;1.73;;
33094;SDS011;19459;53.044;8.910;2023-04-25T11:25:14;7.43;;;2.28;;
33094;SDS011;19459;53.044;8.910;2023-04-25T11:27:51;7.18;;;2.15;;
33094;SDS011;19459;53.044;8.910;2023-04-25T11:30:25;5.50;;;1.48;;
33094;SDS011;19459;53.044;8.910;2023-04-25T11:32:52;8.98;;;1.65;;
33094;SDS011;19459;53.044;8.910;2023-04-25T11:35:19;4.47;;;1.85;;
33094;SDS011;19459;53.044;8.910;2023-04-25T11:37:47;10.27;;;1.60;;
33094;SDS011;19459;53.044;8.910;2023-04-25T11:40:14;6.45;;;1.70;;
33094;SDS011;19459;53.044;8.910;2023-04-25T11:42:44;7.63;;;1.92;;
33094;SDS011;19459;53.044;8.910;2023-04-25T11:45:11;11.48;;;1.98;;
33094;SDS011;19459;53.044;8.910;2023-04-25T11:47:38;7.35;;;2.33;;
33094;SDS011;19459;53.044;8.910;2023-04-25T11:50:06;11.18;;;2.40;;
33094;SDS011;19459;53.044;8.910;2023-04-25T11:52:40;8.95;;;1.90;;
33094;SDS011;19459;53.044;8.910;2023-04-25T11:55:09;6.93;;;1.80;;
33094;SDS011;19459;53.044;8.910;2023-04-25T11:57:43;5.35;;;2.53;;
33094;SDS011;19459;53.044;8.910;2023-04-25T12:00:15;3.50;;;1.58;;
33094;SDS011;19459;53.044;8.910;2023-04-25T12:02:44;5.82;;;1.60;;
33094;SDS011;19459;53.044;8.910;2023-04-25T12:05:29;8.30;;;2.05;;
33094;SDS011;19459;53.044;8.910;2023-04-25T12:07:58;12.38;;;2.38;;
33094;SDS011;19459;53.044;8.910;2023-04-25T12:10:37;11.13;;;2.80;;
33094;SDS011;19459;53.044;8.910;2023-04-25T12:13:23;14.77;;;2.63;;
33094;SDS011;19459;53.044;8.910;2023-04-25T12:15:55;8.82;;;2.03;;
33094;SDS011;19459;53.044;8.910;2023-04-25T12:18:25;19.45;;;3.03;;
33094;SDS011;19459;53.044;8.910;2023-04-25T12:20:52;7.50;;;1.50;;
33094;SDS011;19459;53.044;8.910;2023-04-25T12:23:25;7.45;;;2.35;;
33094;SDS011;19459;53.044;8.910;2023-04-25T12:25:52;7.38;;;1.60;;
33094;SDS011;19459;53.044;8.910;2023-04-25T12:28:19;9.98;;;1.50;;
33094;SDS011;19459;53.044;8.910;2023-04-25T12:31:04;4.78;;;1.58;;
33094;SDS011;19459;53.044;8.910;2023-04-25T12:33:32;4.35;;;0.90;;
33094;SDS011;19459;53.044;8.910;2023-04-25T12:36:01;8.35;;;1.90;;
33094;SDS011;19459;53.044;8.910;2023-04-25T12:38:36;7.30;;;2.03;;
33094;SDS011;19459;53.044;8.910;2023-04-25T12:41:04;14.98;;;3.78;;
33094;SDS011;19459;53.044;8.910;2023-04-25T12:43:31;11.27;;;2.28;;
33094;SDS011;19459;53.044;8.910;2023-04-25T12:45:56;7.28;;;2.75;;
33094;SDS011;19459;53.044;8.910;2023-04-25T12:48:23;10.15;;;2.80;;
33094;SDS011;19459;53.044;8.910;2023-04-25T12:50:49;13.45;;;2.78;;
33094;SDS011;19459;53.044;8.910;2023-04-25T12:53:20;9.93;;;2.95;;
33094;SDS011;19459;53.044;8.910;2023-04-25T12:55:47;11.73;;;2.80;;
33094;SDS011;19459;53.044;8.910;2023-04-25T12:58:13;8.23;;;2.58;;
33094;SDS011;19459;53.044;8.910;2023-04-25T13:00:40;7.22;;;1.63;;
33094;SDS011;19459;53.044;8.910;2023-04-25T13:03:06;6.85;;;1.65;;
33094;SDS011;19459;53.044;8.910;2023-04-25T13:05:33;10.85;;;3.10;;
33094;SDS011;19459;53.044;8.910;2023-04-25T13:07:59;5.40;;;1.95;;
33094;SDS011;19459;53.044;8.910;2023-04-25T13:10:25;12.50;;;2.13;;
33094;SDS011;19459;53.044;8.910;2023-04-25T13:12:51;11.18;;;3.17;;
33094;SDS011;19459;53.044;8.910;2023-04-25T13:15:17;9.00;;;2.20;;
33094;SDS011;19459;53.044;8.910;2023-04-25T13:17:42;5.25;;;1.58;;
33094;SDS011;19459;53.044;8.910;2023-04-25T13:20:08;9.75;;;1.70;;
33094;SDS011;19459;53.044;8.910;2023-04-25T13:22:38;9.93;;;2.38;;
33094;SDS011;19459;53.044;8.910;2023-04-25T13:25:05;9.90;;;1.83;;
33094;SDS011;19459;53.044;8.910;2023-04-25T13:27:33;8.80;;;1.77;;
33094;SDS011;19459;53.044;8.910;2023-04-25T13:30:01;9.68;;;1.60;;
33094;SDS011;19459;53.044;8.910;2023-04-25T13:32:41;7.00;;;1.92;;
33094;SDS011;19459;53.044;8.910;2023-04-25T13:35:08;12.50;;;3.17;;
33094;SDS011;19459;53.044;8.910;2023-04-25T13:37:37;6.63;;;2.45;;
33094;SDS011;19459;53.044;8.910;2023-04-25T13:40:04;3.22;;;1.23;;
33094;SDS011;19459;53.044;8.910;2023-04-25T13:42:35;6.85;;;1.50;;
33094;SDS011;19459;53.044;8.910;2023-04-25T13:45:01;3.28;;;1.60;;
33094;SDS011;19459;53.044;8.910;2023-04-25T13:47:28;7.60;;;1.92;;
33094;SDS011;19459;53.044;8.910;2023-04-25T13:49:55;9.48;;;1.92;;
33094;SDS011;19459;53.044;8.910;2023-04-25T13:52:21;6.05;;;1.88;;
33094;SDS011;19459;53.044;8.910;2023-04-25T13:54:49;7.50;;;1.83;;
33094;SDS011;19459;53.044;8.910;2023-04-25T13:57:15;10.07;;;1.95;;
33094;SDS011;19459;53.044;8.910;2023-04-25T13:59:42;20.23;;;2.35;;
33094;SDS011;19459;53.044;8.910;2023-04-25T14:02:08;6.05;;;1.52;;
33094;SDS011;19459;53.044;8.910;2023-04-25T14:04:34;6.38;;;1.58;;
33094;SDS011;19459;53.044;8.910;2023-04-25T14:07:00;4.15;;;1.42;;
33094;SDS011;19459;53.044;8.910;2023-04-25T14:09:27;5.72;;;1.92;;
33094;SDS011;19459;53.044;8.910;2023-04-25T14:11:53;8.07;;;1.58;;
33094;SDS011;19459;53.044;8.910;2023-04-25T14:14:20;4.25;;;1.40;;
33094;SDS011;19459;53.044;8.910;2023-04-25T14:16:48;5.82;;;1.73;;
33094;SDS011;19459;53.044;8.910;2023-04-25T14:19:15;7.22;;;1.88;;
33094;SDS011;19459;53.044;8.910;2023-04-25T14:21:42;3.80;;;1.20;;
33094;SDS011;19459;53.044;8.910;2023-04-25T14:24:08;13.98;;;2.47;;
33094;SDS011;19459;53.044;8.910;2023-04-25T14:26:36;16.83;;;2.88;;
33094;SDS011;19459;53.044;8.910;2023-04-25T14:29:03;5.03;;;1.50;;
33094;SDS011;19459;53.044;8.910;2023-04-25T14:31:33;12.65;;;2.47;;
33094;SDS011;19459;53.044;8.910;2023-04-25T14:34:00;5.00;;;1.83;;
33094;SDS011;19459;53.044;8.910;2023-04-25T14:36:30;5.53;;;1.38;;
33094;SDS011;19459;53.044;8.910;2023-04-25T14:38:56;9.55;;;1.80;;
33094;SDS011;19459;53.044;8.910;2023-04-25T14:41:22;3.83;;;1.63;;
33094;SDS011;19459;53.044;8.910;2023-04-25T14:43:49;7.05;;;2.15;;
33094;SDS011;19459;53.044;8.910;2023-04-25T14:46:19;4.43;;;1.67;;
33094;SDS011;19459;53.044;8.910;2023-04-25T14:48:45;6.00;;;1.58;;
33094;SDS011;19459;53.044;8.910;2023-04-25T14:51:12;8.00;;;1.88;;